Peyton, Colorado
Current Conditions -  °F | °C
As of 10:14 AM on Sunday 21 Dec 2014 (Local Time) from KFLY Reporting Station
Clear Clear  
Wind Chill: 39°   Ceiling: Unl
Heat Index: 42°   Visibility: 10mi
Dew Point: 14°   Wind: 5mph
Humidity: 33%   Direction: 250°WSW
Pressure: 29.73"   Gusts: NA
Location:  39.03°N, 104.48°W
Report Text: KFLY 211714Z AUTO 25004KT 10SM CLR 05/M10 A2973 RMK AO2 T00531098
Loading
Personal Weather Stations






























Interactive Weather Map New forecast layout! Learn more

10-Day Weather Forecast

Advertisements
Track Severe Weather on mobile